sensor_id;sensor_type;location;lat;lon;timestamp;P1;durP1;ratioP1;P2;durP2;ratioP2
57071;SDS011;42956;51.366;11.298;2023-04-19T00:00:04;8.90;;;3.83;;
57071;SDS011;42956;51.366;11.298;2023-04-19T00:02:35;5.07;;;3.83;;
57071;SDS011;42956;51.366;11.298;2023-04-19T00:05:04;6.63;;;4.45;;
57071;SDS011;42956;51.366;11.298;2023-04-19T00:07:32;5.70;;;4.38;;
57071;SDS011;42956;51.366;11.298;2023-04-19T00:10:00;7.78;;;4.15;;
57071;SDS011;42956;51.366;11.298;2023-04-19T00:12:28;7.97;;;4.55;;
57071;SDS011;42956;51.366;11.298;2023-04-19T00:14:56;9.82;;;4.50;;
57071;SDS011;42956;51.366;11.298;2023-04-19T00:17:24;8.63;;;3.88;;
57071;SDS011;42956;51.366;11.298;2023-04-19T00:19:54;5.35;;;3.78;;
57071;SDS011;42956;51.366;11.298;2023-04-19T00:22:22;9.73;;;4.57;;
57071;SDS011;42956;51.366;11.298;2023-04-19T00:24:50;6.70;;;3.92;;
57071;SDS011;42956;51.366;11.298;2023-04-19T00:27:18;7.63;;;3.83;;
57071;SDS011;42956;51.366;11.298;2023-04-19T00:29:46;6.50;;;4.30;;
57071;SDS011;42956;51.366;11.298;2023-04-19T00:32:14;6.00;;;3.90;;
57071;SDS011;42956;51.366;11.298;2023-04-19T00:34:42;7.10;;;4.03;;
57071;SDS011;42956;51.366;11.298;2023-04-19T00:37:11;9.02;;;4.65;;
57071;SDS011;42956;51.366;11.298;2023-04-19T00:39:39;6.75;;;4.05;;
57071;SDS011;42956;51.366;11.298;2023-04-19T00:42:07;6.07;;;4.32;;
57071;SDS011;42956;51.366;11.298;2023-04-19T00:44:35;5.05;;;3.67;;
57071;SDS011;42956;51.366;11.298;2023-04-19T00:47:02;6.78;;;4.18;;
57071;SDS011;42956;51.366;11.298;2023-04-19T00:49:30;9.77;;;4.95;;
57071;SDS011;42956;51.366;11.298;2023-04-19T00:51:58;6.68;;;4.35;;
57071;SDS011;42956;51.366;11.298;2023-04-19T00:54:28;7.45;;;4.75;;
57071;SDS011;42956;51.366;11.298;2023-04-19T00:56:56;9.82;;;5.68;;
57071;SDS011;42956;51.366;11.298;2023-04-19T00:59:24;8.05;;;5.40;;
57071;SDS011;42956;51.366;11.298;2023-04-19T01:01:52;11.68;;;4.93;;
57071;SDS011;42956;51.366;11.298;2023-04-19T01:04:20;9.48;;;5.75;;
57071;SDS011;42956;51.366;11.298;2023-04-19T01:06:49;10.23;;;6.80;;
57071;SDS011;42956;51.366;11.298;2023-04-19T01:09:16;10.73;;;6.53;;
57071;SDS011;42956;51.366;11.298;2023-04-19T01:11:46;8.25;;;5.80;;
57071;SDS011;42956;51.366;11.298;2023-04-19T01:14:14;11.27;;;6.10;;
57071;SDS011;42956;51.366;11.298;2023-04-19T01:16:42;10.55;;;6.82;;
57071;SDS011;42956;51.366;11.298;2023-04-19T01:19:11;8.90;;;6.05;;
57071;SDS011;42956;51.366;11.298;2023-04-19T01:21:39;10.55;;;6.55;;
57071;SDS011;42956;51.366;11.298;2023-04-19T01:24:09;10.70;;;6.35;;
57071;SDS011;42956;51.366;11.298;2023-04-19T01:26:37;9.52;;;6.43;;
57071;SDS011;42956;51.366;11.298;2023-04-19T01:29:05;14.20;;;6.75;;
57071;SDS011;42956;51.366;11.298;2023-04-19T01:31:33;8.20;;;6.10;;
57071;SDS011;42956;51.366;11.298;2023-04-19T01:34:01;9.90;;;6.88;;
57071;SDS011;42956;51.366;11.298;2023-04-19T01:36:29;11.10;;;6.63;;
57071;SDS011;42956;51.366;11.298;2023-04-19T01:38:57;17.88;;;7.13;;
57071;SDS011;42956;51.366;11.298;2023-04-19T01:41:26;11.88;;;6.30;;
57071;SDS011;42956;51.366;11.298;2023-04-19T01:43:55;10.23;;;6.80;;
57071;SDS011;42956;51.366;11.298;2023-04-19T01:46:23;10.55;;;5.88;;
57071;SDS011;42956;51.366;11.298;2023-04-19T01:48:51;9.45;;;6.35;;
57071;SDS011;42956;51.366;11.298;2023-04-19T01:51:18;13.02;;;6.05;;
57071;SDS011;42956;51.366;11.298;2023-04-19T01:53:47;11.13;;;6.57;;
57071;SDS011;42956;51.366;11.298;2023-04-19T01:56:18;10.27;;;5.93;;
57071;SDS011;42956;51.366;11.298;2023-04-19T01:58:47;10.15;;;6.65;;
57071;SDS011;42956;51.366;11.298;2023-04-19T02:01:15;10.00;;;6.25;;
57071;SDS011;42956;51.366;11.298;2023-04-19T02:03:43;13.57;;;6.97;;
57071;SDS011;42956;51.366;11.298;2023-04-19T02:06:11;13.55;;;6.47;;
57071;SDS011;42956;51.366;11.298;2023-04-19T02:08:40;10.40;;;7.25;;
57071;SDS011;42956;51.366;11.298;2023-04-19T02:11:08;10.90;;;6.18;;
57071;SDS011;42956;51.366;11.298;2023-04-19T02:13:36;8.82;;;5.70;;
57071;SDS011;42956;51.366;11.298;2023-04-19T02:16:05;11.05;;;6.22;;
57071;SDS011;42956;51.366;11.298;2023-04-19T02:18:34;10.20;;;7.20;;
57071;SDS011;42956;51.366;11.298;2023-04-19T02:21:04;8.50;;;5.68;;
57071;SDS011;42956;51.366;11.298;2023-04-19T02:23:33;9.23;;;5.53;;
57071;SDS011;42956;51.366;11.298;2023-04-19T02:26:01;8.95;;;5.60;;
57071;SDS011;42956;51.366;11.298;2023-04-19T02:28:29;9.95;;;4.90;;
57071;SDS011;42956;51.366;11.298;2023-04-19T02:30:57;11.02;;;5.43;;
57071;SDS011;42956;51.366;11.298;2023-04-19T02:33:26;10.88;;;4.78;;
57071;SDS011;42956;51.366;11.298;2023-04-19T02:35:54;11.25;;;5.03;;
57071;SDS011;42956;51.366;11.298;2023-04-19T02:38:22;15.57;;;5.40;;
57071;SDS011;42956;51.366;11.298;2023-04-19T02:40:50;13.30;;;4.97;;
57071;SDS011;42956;51.366;11.298;2023-04-19T02:43:18;9.55;;;4.80;;
57071;SDS011;42956;51.366;11.298;2023-04-19T02:45:46;9.85;;;4.68;;
57071;SDS011;42956;51.366;11.298;2023-04-19T02:48:14;7.93;;;5.15;;
57071;SDS011;42956;51.366;11.298;2023-04-19T02:50:43;9.45;;;5.00;;
57071;SDS011;42956;51.366;11.298;2023-04-19T02:53:11;7.43;;;4.35;;
57071;SDS011;42956;51.366;11.298;2023-04-19T02:55:39;11.30;;;4.88;;
57071;SDS011;42956;51.366;11.298;2023-04-19T02:58:07;10.50;;;4.50;;
57071;SDS011;42956;51.366;11.298;2023-04-19T03:00:35;9.13;;;4.82;;
57071;SDS011;42956;51.366;11.298;2023-04-19T03:03:03;13.02;;;4.75;;
57071;SDS011;42956;51.366;11.298;2023-04-19T03:05:31;7.07;;;4.18;;
57071;SDS011;42956;51.366;11.298;2023-04-19T03:08:00;6.05;;;3.95;;
57071;SDS011;42956;51.366;11.298;2023-04-19T03:10:28;9.90;;;3.90;;
57071;SDS011;42956;51.366;11.298;2023-04-19T03:12:56;6.82;;;4.05;;
57071;SDS011;42956;51.366;11.298;2023-04-19T03:18:52;8.48;;;4.60;;
57071;SDS011;42956;51.366;11.298;2023-04-19T03:21:20;8.00;;;4.32;;
57071;SDS011;42956;51.366;11.298;2023-04-19T03:23:54;5.38;;;4.03;;
57071;SDS011;42956;51.366;11.298;2023-04-19T03:26:22;7.38;;;4.15;;
57071;SDS011;42956;51.366;11.298;2023-04-19T03:28:49;8.15;;;4.18;;
57071;SDS011;42956;51.366;11.298;2023-04-19T03:31:17;9.65;;;4.75;;
57071;SDS011;42956;51.366;11.298;2023-04-19T03:33:45;10.85;;;4.47;;
57071;SDS011;42956;51.366;11.298;2023-04-19T03:36:13;7.05;;;4.75;;
57071;SDS011;42956;51.366;11.298;2023-04-19T03:38:41;13.52;;;4.00;;
57071;SDS011;42956;51.366;11.298;2023-04-19T03:41:21;9.70;;;3.80;;
57071;SDS011;42956;51.366;11.298;2023-04-19T03:43:49;5.63;;;3.70;;
57071;SDS011;42956;51.366;11.298;2023-04-19T03:46:17;9.20;;;4.18;;
57071;SDS011;42956;51.366;11.298;2023-04-19T03:48:45;9.98;;;3.83;;
57071;SDS011;42956;51.366;11.298;2023-04-19T03:51:13;7.88;;;3.70;;
57071;SDS011;42956;51.366;11.298;2023-04-19T03:53:41;8.57;;;3.58;;
57071;SDS011;42956;51.366;11.298;2023-04-19T03:56:09;7.50;;;3.63;;
57071;SDS011;42956;51.366;11.298;2023-04-19T03:58:38;7.82;;;3.88;;
57071;SDS011;42956;51.366;11.298;2023-04-19T04:01:16;6.65;;;3.83;;
57071;SDS011;42956;51.366;11.298;2023-04-19T04:03:43;10.23;;;4.10;;
57071;SDS011;42956;51.366;11.298;2023-04-19T04:06:12;7.05;;;4.38;;
57071;SDS011;42956;51.366;11.298;2023-04-19T04:08:39;8.30;;;4.18;;
57071;SDS011;42956;51.366;11.298;2023-04-19T04:11:08;7.05;;;3.58;;
57071;SDS011;42956;51.366;11.298;2023-04-19T04:13:35;9.90;;;4.03;;
57071;SDS011;42956;51.366;11.298;2023-04-19T04:16:05;5.53;;;3.78;;
57071;SDS011;42956;51.366;11.298;2023-04-19T04:18:33;7.85;;;3.83;;
57071;SDS011;42956;51.366;11.298;2023-04-19T04:21:00;7.40;;;3.53;;
57071;SDS011;42956;51.366;11.298;2023-04-19T04:23:28;14.85;;;4.45;;
57071;SDS011;42956;51.366;11.298;2023-04-19T04:25:56;6.55;;;3.70;;
57071;SDS011;42956;51.366;11.298;2023-04-19T04:28:26;5.93;;;3.45;;
57071;SDS011;42956;51.366;11.298;2023-04-19T04:30:55;5.60;;;3.67;;
57071;SDS011;42956;51.366;11.298;2023-04-19T04:33:25;7.47;;;3.90;;
57071;SDS011;42956;51.366;11.298;2023-04-19T04:35:54;5.25;;;3.50;;
57071;SDS011;42956;51.366;11.298;2023-04-19T04:38:23;10.93;;;3.45;;
57071;SDS011;42956;51.366;11.298;2023-04-19T04:40:51;6.13;;;3.47;;
57071;SDS011;42956;51.366;11.298;2023-04-19T04:43:20;8.15;;;3.50;;
57071;SDS011;42956;51.366;11.298;2023-04-19T04:45:48;5.82;;;3.20;;
57071;SDS011;42956;51.366;11.298;2023-04-19T04:48:16;7.45;;;3.03;;
57071;SDS011;42956;51.366;11.298;2023-04-19T04:50:45;8.77;;;3.78;;
57071;SDS011;42956;51.366;11.298;2023-04-19T04:53:13;6.13;;;3.35;;
57071;SDS011;42956;51.366;11.298;2023-04-19T04:55:41;4.28;;;3.22;;
57071;SDS011;42956;51.366;11.298;2023-04-19T04:58:09;9.93;;;3.88;;
57071;SDS011;42956;51.366;11.298;2023-04-19T05:00:37;5.63;;;2.78;;
57071;SDS011;42956;51.366;11.298;2023-04-19T05:03:05;9.90;;;3.28;;
57071;SDS011;42956;51.366;11.298;2023-04-19T05:05:33;9.30;;;3.10;;
57071;SDS011;42956;51.366;11.298;2023-04-19T05:08:03;6.75;;;3.13;;
57071;SDS011;42956;51.366;11.298;2023-04-19T05:10:31;6.55;;;3.28;;
57071;SDS011;42956;51.366;11.298;2023-04-19T05:12:59;7.72;;;4.40;;
57071;SDS011;42956;51.366;11.298;2023-04-19T05:15:27;5.53;;;2.75;;
57071;SDS011;42956;51.366;11.298;2023-04-19T05:17:55;6.97;;;3.13;;
57071;SDS011;42956;51.366;11.298;2023-04-19T05:20:23;6.07;;;2.67;;
57071;SDS011;42956;51.366;11.298;2023-04-19T05:22:55;6.45;;;3.08;;
57071;SDS011;42956;51.366;11.298;2023-04-19T05:25:25;4.50;;;3.15;;
57071;SDS011;42956;51.366;11.298;2023-04-19T05:27:55;9.82;;;4.30;;
57071;SDS011;42956;51.366;11.298;2023-04-19T05:30:23;7.30;;;3.88;;
57071;SDS011;42956;51.366;11.298;2023-04-19T05:32:51;7.80;;;3.60;;
57071;SDS011;42956;51.366;11.298;2023-04-19T05:35:19;5.25;;;3.60;;
57071;SDS011;42956;51.366;11.298;2023-04-19T05:37:47;5.32;;;3.15;;
57071;SDS011;42956;51.366;11.298;2023-04-19T05:40:16;7.90;;;3.47;;
57071;SDS011;42956;51.366;11.298;2023-04-19T05:42:46;4.47;;;3.25;;
57071;SDS011;42956;51.366;11.298;2023-04-19T05:45:14;8.07;;;3.35;;
57071;SDS011;42956;51.366;11.298;2023-04-19T05:47:42;5.03;;;3.50;;
57071;SDS011;42956;51.366;11.298;2023-04-19T05:50:10;6.03;;;2.85;;
57071;SDS011;42956;51.366;11.298;2023-04-19T05:52:38;4.28;;;2.78;;
57071;SDS011;42956;51.366;11.298;2023-04-19T05:55:06;7.50;;;3.30;;
57071;SDS011;42956;51.366;11.298;2023-04-19T05:57:34;3.30;;;2.65;;
57071;SDS011;42956;51.366;11.298;2023-04-19T06:00:03;5.63;;;3.15;;
57071;SDS011;42956;51.366;11.298;2023-04-19T06:02:32;5.00;;;3.40;;
57071;SDS011;42956;51.366;11.298;2023-04-19T06:05:00;4.35;;;3.28;;
57071;SDS011;42956;51.366;11.298;2023-04-19T06:07:35;6.85;;;3.92;;
57071;SDS011;42956;51.366;11.298;2023-04-19T06:10:12;5.45;;;3.83;;
57071;SDS011;42956;51.366;11.298;2023-04-19T06:12:40;6.05;;;3.45;;
57071;SDS011;42956;51.366;11.298;2023-04-19T06:15:09;5.45;;;3.10;;
57071;SDS011;42956;51.366;11.298;2023-04-19T06:17:38;8.10;;;3.35;;
57071;SDS011;42956;51.366;11.298;2023-04-19T06:20:07;12.02;;;3.92;;
57071;SDS011;42956;51.366;11.298;2023-04-19T06:22:41;8.25;;;2.88;;
57071;SDS011;42956;51.366;11.298;2023-04-19T06:25:11;4.55;;;3.00;;
57071;SDS011;42956;51.366;11.298;2023-04-19T06:27:39;6.80;;;3.65;;
57071;SDS011;42956;51.366;11.298;2023-04-19T06:30:07;5.07;;;2.75;;
57071;SDS011;42956;51.366;11.298;2023-04-19T06:32:37;6.13;;;3.00;;
57071;SDS011;42956;51.366;11.298;2023-04-19T06:35:05;6.07;;;2.80;;
57071;SDS011;42956;51.366;11.298;2023-04-19T06:37:36;4.05;;;2.30;;
57071;SDS011;42956;51.366;11.298;2023-04-19T06:40:08;5.20;;;2.45;;
57071;SDS011;42956;51.366;11.298;2023-04-19T06:42:37;4.22;;;2.85;;
57071;SDS011;42956;51.366;11.298;2023-04-19T06:45:06;5.13;;;2.85;;
57071;SDS011;42956;51.366;11.298;2023-04-19T06:47:41;5.38;;;2.70;;
57071;SDS011;42956;51.366;11.298;2023-04-19T06:50:19;8.95;;;2.75;;
57071;SDS011;42956;51.366;11.298;2023-04-19T06:52:49;4.53;;;2.90;;
57071;SDS011;42956;51.366;11.298;2023-04-19T06:55:19;9.55;;;3.80;;
57071;SDS011;42956;51.366;11.298;2023-04-19T06:57:50;4.05;;;2.80;;
57071;SDS011;42956;51.366;11.298;2023-04-19T07:00:18;7.75;;;6.03;;
57071;SDS011;42956;51.366;11.298;2023-04-19T07:02:49;9.27;;;4.10;;
57071;SDS011;42956;51.366;11.298;2023-04-19T07:05:21;4.32;;;2.75;;
57071;SDS011;42956;51.366;11.298;2023-04-19T07:07:49;8.32;;;2.45;;
57071;SDS011;42956;51.366;11.298;2023-04-19T07:10:17;7.40;;;2.42;;
57071;SDS011;42956;51.366;11.298;2023-04-19T07:12:45;5.55;;;2.63;;
57071;SDS011;42956;51.366;11.298;2023-04-19T07:15:14;4.78;;;2.72;;
57071;SDS011;42956;51.366;11.298;2023-04-19T07:17:42;11.93;;;2.85;;
57071;SDS011;42956;51.366;11.298;2023-04-19T07:20:11;6.03;;;3.03;;
57071;SDS011;42956;51.366;11.298;2023-04-19T07:22:39;3.97;;;2.50;;
57071;SDS011;42956;51.366;11.298;2023-04-19T07:25:08;8.35;;;2.45;;
57071;SDS011;42956;51.366;11.298;2023-04-19T07:27:36;3.35;;;2.10;;
57071;SDS011;42956;51.366;11.298;2023-04-19T07:30:04;6.85;;;2.58;;
57071;SDS011;42956;51.366;11.298;2023-04-19T07:32:32;5.32;;;2.40;;
57071;SDS011;42956;51.366;11.298;2023-04-19T07:35:00;5.47;;;2.80;;
57071;SDS011;42956;51.366;11.298;2023-04-19T07:37:30;6.47;;;2.55;;
57071;SDS011;42956;51.366;11.298;2023-04-19T07:39:58;6.47;;;2.75;;
57071;SDS011;42956;51.366;11.298;2023-04-19T07:42:28;4.88;;;2.40;;
57071;SDS011;42956;51.366;11.298;2023-04-19T07:44:56;4.88;;;2.50;;
57071;SDS011;42956;51.366;11.298;2023-04-19T07:47:25;6.53;;;2.55;;
57071;SDS011;42956;51.366;11.298;2023-04-19T07:49:54;7.28;;;3.17;;
57071;SDS011;42956;51.366;11.298;2023-04-19T07:52:22;4.55;;;2.75;;
57071;SDS011;42956;51.366;11.298;2023-04-19T07:54:51;7.60;;;2.83;;
57071;SDS011;42956;51.366;11.298;2023-04-19T07:57:19;6.40;;;3.05;;
57071;SDS011;42956;51.366;11.298;2023-04-19T07:59:47;5.75;;;2.60;;
57071;SDS011;42956;51.366;11.298;2023-04-19T08:02:15;5.20;;;2.47;;
57071;SDS011;42956;51.366;11.298;2023-04-19T08:04:44;5.15;;;2.85;;
57071;SDS011;42956;51.366;11.298;2023-04-19T08:07:15;5.80;;;2.90;;
57071;SDS011;42956;51.366;11.298;2023-04-19T08:09:44;4.47;;;2.38;;
57071;SDS011;42956;51.366;11.298;2023-04-19T08:12:13;4.60;;;2.95;;
57071;SDS011;42956;51.366;11.298;2023-04-19T08:14:58;4.97;;;3.00;;
57071;SDS011;42956;51.366;11.298;2023-04-19T08:17:40;3.17;;;2.30;;
57071;SDS011;42956;51.366;11.298;2023-04-19T08:20:10;6.35;;;2.75;;
57071;SDS011;42956;51.366;11.298;2023-04-19T08:22:39;5.15;;;2.97;;
57071;SDS011;42956;51.366;11.298;2023-04-19T08:25:07;5.13;;;2.50;;
57071;SDS011;42956;51.366;11.298;2023-04-19T08:27:37;8.77;;;2.60;;
57071;SDS011;42956;51.366;11.298;2023-04-19T08:30:05;4.00;;;2.92;;
57071;SDS011;42956;51.366;11.298;2023-04-19T08:32:34;5.25;;;3.00;;
57071;SDS011;42956;51.366;11.298;2023-04-19T08:35:03;4.63;;;2.60;;
57071;SDS011;42956;51.366;11.298;2023-04-19T08:37:32;8.93;;;3.47;;
57071;SDS011;42956;51.366;11.298;2023-04-19T08:39:59;4.07;;;2.78;;
57071;SDS011;42956;51.366;11.298;2023-04-19T08:42:27;3.80;;;2.40;;
57071;SDS011;42956;51.366;11.298;2023-04-19T08:45:04;7.18;;;2.80;;
57071;SDS011;42956;51.366;11.298;2023-04-19T08:47:37;4.60;;;2.63;;
57071;SDS011;42956;51.366;11.298;2023-04-19T08:50:08;6.47;;;3.17;;
57071;SDS011;42956;51.366;11.298;2023-04-19T08:52:54;8.13;;;3.17;;
57071;SDS011;42956;51.366;11.298;2023-04-19T08:55:34;12.93;;;5.25;;
57071;SDS011;42956;51.366;11.298;2023-04-19T08:58:06;4.78;;;2.92;;
57071;SDS011;42956;51.366;11.298;2023-04-19T09:00:50;3.70;;;3.10;;
57071;SDS011;42956;51.366;11.298;2023-04-19T09:03:18;4.72;;;3.13;;
57071;SDS011;42956;51.366;11.298;2023-04-19T09:05:46;7.70;;;3.00;;
57071;SDS011;42956;51.366;11.298;2023-04-19T09:08:21;8.18;;;2.63;;
57071;SDS011;42956;51.366;11.298;2023-04-19T09:10:53;4.47;;;3.13;;
57071;SDS011;42956;51.366;11.298;2023-04-19T09:13:21;6.97;;;3.00;;
57071;SDS011;42956;51.366;11.298;2023-04-19T09:15:51;10.00;;;3.40;;
57071;SDS011;42956;51.366;11.298;2023-04-19T09:18:19;5.57;;;3.13;;
57071;SDS011;42956;51.366;11.298;2023-04-19T09:20:48;7.45;;;3.05;;
57071;SDS011;42956;51.366;11.298;2023-04-19T09:23:17;6.60;;;2.83;;
57071;SDS011;42956;51.366;11.298;2023-04-19T09:25:50;6.35;;;3.30;;
57071;SDS011;42956;51.366;11.298;2023-04-19T09:28:38;5.72;;;3.22;;
57071;SDS011;42956;51.366;11.298;2023-04-19T09:31:11;4.55;;;2.97;;
57071;SDS011;42956;51.366;11.298;2023-04-19T09:34:10;5.47;;;3.15;;
57071;SDS011;42956;51.366;11.298;2023-04-19T09:36:39;7.45;;;2.83;;
57071;SDS011;42956;51.366;11.298;2023-04-19T09:39:07;3.92;;;3.05;;
57071;SDS011;42956;51.366;11.298;2023-04-19T09:41:36;5.90;;;3.58;;
57071;SDS011;42956;51.366;11.298;2023-04-19T09:44:23;4.97;;;3.28;;
57071;SDS011;42956;51.366;11.298;2023-04-19T09:46:58;4.57;;;3.55;;
57071;SDS011;42956;51.366;11.298;2023-04-19T09:49:27;7.20;;;2.83;;
57071;SDS011;42956;51.366;11.298;2023-04-19T09:52:14;6.22;;;2.97;;
57071;SDS011;42956;51.366;11.298;2023-04-19T09:54:42;7.00;;;3.20;;
57071;SDS011;42956;51.366;11.298;2023-04-19T09:57:11;6.65;;;2.92;;
57071;SDS011;42956;51.366;11.298;2023-04-19T09:59:40;4.53;;;3.50;;
57071;SDS011;42956;51.366;11.298;2023-04-19T10:02:09;5.43;;;4.03;;
57071;SDS011;42956;51.366;11.298;2023-04-19T10:04:38;7.97;;;3.45;;
57071;SDS011;42956;51.366;11.298;2023-04-19T10:07:27;3.72;;;2.90;;
57071;SDS011;42956;51.366;11.298;2023-04-19T10:09:57;7.18;;;3.47;;
57071;SDS011;42956;51.366;11.298;2023-04-19T10:12:45;10.93;;;4.43;;
57071;SDS011;42956;51.366;11.298;2023-04-19T10:15:35;5.00;;;2.67;;
57071;SDS011;42956;51.366;11.298;2023-04-19T10:18:07;8.20;;;3.25;;
57071;SDS011;42956;51.366;11.298;2023-04-19T10:20:37;8.48;;;3.28;;
57071;SDS011;42956;51.366;11.298;2023-04-19T10:23:06;7.65;;;2.80;;
57071;SDS011;42956;51.366;11.298;2023-04-19T10:25:36;6.80;;;3.63;;
57071;SDS011;42956;51.366;11.298;2023-04-19T10:28:04;6.25;;;4.22;;
57071;SDS011;42956;51.366;11.298;2023-04-19T10:30:32;12.18;;;3.88;;
57071;SDS011;42956;51.366;11.298;2023-04-19T10:33:00;4.72;;;3.20;;
57071;SDS011;42956;51.366;11.298;2023-04-19T10:35:34;7.03;;;3.45;;
57071;SDS011;42956;51.366;11.298;2023-04-19T10:38:06;5.03;;;3.72;;
57071;SDS011;42956;51.366;11.298;2023-04-19T10:43:22;3.80;;;3.05;;
57071;SDS011;42956;51.366;11.298;2023-04-19T10:45:51;15.25;;;8.95;;
57071;SDS011;42956;51.366;11.298;2023-04-19T10:48:35;8.30;;;3.78;;
57071;SDS011;42956;51.366;11.298;2023-04-19T10:51:10;4.22;;;2.92;;
57071;SDS011;42956;51.366;11.298;2023-04-19T10:53:46;4.63;;;3.35;;
57071;SDS011;42956;51.366;11.298;2023-04-19T10:56:15;6.07;;;3.13;;
57071;SDS011;42956;51.366;11.298;2023-04-19T11:01:33;4.75;;;2.88;;
57071;SDS011;42956;51.366;11.298;2023-04-19T11:04:03;5.72;;;3.28;;
57071;SDS011;42956;51.366;11.298;2023-04-19T11:06:33;5.35;;;3.20;;
57071;SDS011;42956;51.366;11.298;2023-04-19T11:09:02;11.93;;;3.75;;
57071;SDS011;42956;51.366;11.298;2023-04-19T11:11:32;3.78;;;3.38;;
57071;SDS011;42956;51.366;11.298;2023-04-19T11:14:00;6.60;;;3.45;;
57071;SDS011;42956;51.366;11.298;2023-04-19T11:16:28;4.78;;;3.05;;
57071;SDS011;42956;51.366;11.298;2023-04-19T11:19:13;7.23;;;3.13;;
57071;SDS011;42956;51.366;11.298;2023-04-19T11:21:43;6.32;;;2.83;;
57071;SDS011;42956;51.366;11.298;2023-04-19T11:24:11;4.70;;;2.80;;
57071;SDS011;42956;51.366;11.298;2023-04-19T11:26:41;3.97;;;2.72;;
57071;SDS011;42956;51.366;11.298;2023-04-19T11:29:13;8.93;;;5.60;;
57071;SDS011;42956;51.366;11.298;2023-04-19T11:31:42;5.72;;;3.25;;
57071;SDS011;42956;51.366;11.298;2023-04-19T11:34:12;4.78;;;3.08;;
57071;SDS011;42956;51.366;11.298;2023-04-19T11:36:47;4.55;;;2.80;;
57071;SDS011;42956;51.366;11.298;2023-04-19T11:39:15;6.80;;;3.38;;
57071;SDS011;42956;51.366;11.298;2023-04-19T11:41:43;6.05;;;3.80;;
57071;SDS011;42956;51.366;11.298;2023-04-19T11:44:13;5.07;;;3.10;;
57071;SDS011;42956;51.366;11.298;2023-04-19T11:46:41;6.25;;;3.60;;
57071;SDS011;42956;51.366;11.298;2023-04-19T11:49:09;5.25;;;3.08;;
57071;SDS011;42956;51.366;11.298;2023-04-19T11:51:40;5.10;;;2.85;;
57071;SDS011;42956;51.366;11.298;2023-04-19T11:54:13;5.65;;;3.22;;
57071;SDS011;42956;51.366;11.298;2023-04-19T11:56:57;3.92;;;2.58;;
57071;SDS011;42956;51.366;11.298;2023-04-19T11:59:24;9.00;;;3.55;;
57071;SDS011;42956;51.366;11.298;2023-04-19T12:01:52;4.07;;;2.50;;
57071;SDS011;42956;51.366;11.298;2023-04-19T12:04:20;8.25;;;2.53;;
57071;SDS011;42956;51.366;11.298;2023-04-19T12:06:55;3.63;;;2.60;;
57071;SDS011;42956;51.366;11.298;2023-04-19T12:09:25;5.15;;;3.05;;
57071;SDS011;42956;51.366;11.298;2023-04-19T12:11:53;4.55;;;3.10;;
57071;SDS011;42956;51.366;11.298;2023-04-19T12:14:21;4.03;;;2.80;;
57071;SDS011;42956;51.366;11.298;2023-04-19T12:17:02;4.55;;;2.20;;
57071;SDS011;42956;51.366;11.298;2023-04-19T12:19:33;5.32;;;3.25;;
57071;SDS011;42956;51.366;11.298;2023-04-19T12:22:08;8.93;;;5.80;;
57071;SDS011;42956;51.366;11.298;2023-04-19T12:24:37;7.60;;;4.07;;
57071;SDS011;42956;51.366;11.298;2023-04-19T12:27:06;4.20;;;3.45;;
57071;SDS011;42956;51.366;11.298;2023-04-19T12:29:36;5.25;;;3.30;;
57071;SDS011;42956;51.366;11.298;2023-04-19T12:32:04;9.10;;;3.00;;
57071;SDS011;42956;51.366;11.298;2023-04-19T12:34:32;8.02;;;2.63;;
57071;SDS011;42956;51.366;11.298;2023-04-19T12:37:00;6.40;;;2.90;;
57071;SDS011;42956;51.366;11.298;2023-04-19T12:39:29;5.10;;;2.83;;
57071;SDS011;42956;51.366;11.298;2023-04-19T12:41:58;4.68;;;3.15;;
57071;SDS011;42956;51.366;11.298;2023-04-19T12:44:26;7.43;;;3.05;;
57071;SDS011;42956;51.366;11.298;2023-04-19T12:46:54;4.88;;;3.25;;
57071;SDS011;42956;51.366;11.298;2023-04-19T12:49:23;5.55;;;3.33;;
57071;SDS011;42956;51.366;11.298;2023-04-19T12:51:51;3.50;;;2.58;;
57071;SDS011;42956;51.366;11.298;2023-04-19T12:54:22;9.88;;;3.00;;
57071;SDS011;42956;51.366;11.298;2023-04-19T12:56:51;5.35;;;3.15;;
57071;SDS011;42956;51.366;11.298;2023-04-19T12:59:20;4.75;;;2.80;;
57071;SDS011;42956;51.366;11.298;2023-04-19T13:01:48;6.35;;;2.65;;
57071;SDS011;42956;51.366;11.298;2023-04-19T13:04:16;7.72;;;3.15;;
57071;SDS011;42956;51.366;11.298;2023-04-19T13:06:45;6.28;;;2.90;;
57071;SDS011;42956;51.366;11.298;2023-04-19T13:09:12;6.05;;;3.97;;
57071;SDS011;42956;51.366;11.298;2023-04-19T13:11:41;6.50;;;3.17;;
57071;SDS011;42956;51.366;11.298;2023-04-19T13:14:08;4.72;;;3.30;;
57071;SDS011;42956;51.366;11.298;2023-04-19T13:16:38;6.65;;;3.38;;
57071;SDS011;42956;51.366;11.298;2023-04-19T13:19:06;4.05;;;2.97;;
57071;SDS011;42956;51.366;11.298;2023-04-19T13:21:33;5.30;;;3.30;;
57071;SDS011;42956;51.366;11.298;2023-04-19T13:24:01;5.57;;;3.22;;
57071;SDS011;42956;51.366;11.298;2023-04-19T13:26:29;5.95;;;4.07;;
57071;SDS011;42956;51.366;11.298;2023-04-19T13:29:00;7.43;;;3.40;;
57071;SDS011;42956;51.366;11.298;2023-04-19T13:31:28;8.55;;;3.67;;
57071;SDS011;42956;51.366;11.298;2023-04-19T13:33:57;7.05;;;3.80;;
57071;SDS011;42956;51.366;11.298;2023-04-19T13:36:26;6.65;;;3.30;;
57071;SDS011;42956;51.366;11.298;2023-04-19T13:38:57;5.05;;;3.42;;
57071;SDS011;42956;51.366;11.298;2023-04-19T13:41:26;8.82;;;4.15;;
57071;SDS011;42956;51.366;11.298;2023-04-19T13:43:54;8.10;;;3.25;;
57071;SDS011;42956;51.366;11.298;2023-04-19T13:46:22;8.07;;;4.03;;
57071;SDS011;42956;51.366;11.298;2023-04-19T13:48:50;8.00;;;3.75;;
57071;SDS011;42956;51.366;11.298;2023-04-19T13:51:19;5.68;;;3.65;;
57071;SDS011;42956;51.366;11.298;2023-04-19T13:53:47;8.50;;;3.67;;
57071;SDS011;42956;51.366;11.298;2023-04-19T13:56:15;8.50;;;3.58;;
57071;SDS011;42956;51.366;11.298;2023-04-19T13:58:43;6.50;;;3.50;;
57071;SDS011;42956;51.366;11.298;2023-04-19T14:01:11;8.80;;;3.63;;
57071;SDS011;42956;51.366;11.298;2023-04-19T14:03:39;7.82;;;3.30;;
57071;SDS011;42956;51.366;11.298;2023-04-19T14:06:07;12.10;;;3.33;;
57071;SDS011;42956;51.366;11.298;2023-04-19T14:08:37;5.82;;;3.05;;
57071;SDS011;42956;51.366;11.298;2023-04-19T14:11:04;4.47;;;3.20;;
57071;SDS011;42956;51.366;11.298;2023-04-19T14:13:32;5.40;;;3.90;;
57071;SDS011;42956;51.366;11.298;2023-04-19T14:16:00;5.35;;;3.53;;
57071;SDS011;42956;51.366;11.298;2023-04-19T14:21:56;8.77;;;3.17;;
57071;SDS011;42956;51.366;11.298;2023-04-19T14:24:31;5.65;;;2.83;;
57071;SDS011;42956;51.366;11.298;2023-04-19T14:26:59;8.38;;;3.38;;
57071;SDS011;42956;51.366;11.298;2023-04-19T14:29:29;5.70;;;3.22;;
57071;SDS011;42956;51.366;11.298;2023-04-19T14:31:57;3.80;;;2.88;;
57071;SDS011;42956;51.366;11.298;2023-04-19T14:34:42;3.85;;;3.45;;
57071;SDS011;42956;51.366;11.298;2023-04-19T14:37:10;6.15;;;3.50;;
57071;SDS011;42956;51.366;11.298;2023-04-19T14:39:39;7.88;;;3.80;;
57071;SDS011;42956;51.366;11.298;2023-04-19T14:42:07;5.75;;;2.80;;
57071;SDS011;42956;51.366;11.298;2023-04-19T14:44:35;4.88;;;2.78;;
57071;SDS011;42956;51.366;11.298;2023-04-19T14:47:03;3.08;;;2.78;;
57071;SDS011;42956;51.366;11.298;2023-04-19T14:49:31;4.22;;;3.20;;
57071;SDS011;42956;51.366;11.298;2023-04-19T14:52:02;3.97;;;2.90;;
57071;SDS011;42956;51.366;11.298;2023-04-19T14:54:30;10.80;;;3.40;;
57071;SDS011;42956;51.366;11.298;2023-04-19T14:57:05;5.20;;;2.90;;
57071;SDS011;42956;51.366;11.298;2023-04-19T14:59:33;4.80;;;2.90;;